createdAt,value
2023-03-17T00:00:50.687Z,95.20
2023-03-17T00:05:55.700Z,88.50
2023-03-17T00:10:55.070Z,84.10
2023-03-17T00:16:01.211Z,86.10
2023-03-17T00:21:01.098Z,77.00
2023-03-17T00:26:00.518Z,83.90
2023-03-17T00:31:02.817Z,77.80
2023-03-17T00:36:03.230Z,75.40
2023-03-17T00:41:03.277Z,73.70
2023-03-17T00:46:03.297Z,74.70
2023-03-17T00:51:01.851Z,73.50
2023-03-17T00:56:00.991Z,77.40
2023-03-17T01:01:01.023Z,71.30
2023-03-17T01:06:00.555Z,75.80
2023-03-17T01:10:59.843Z,74.10
2023-03-17T01:15:59.571Z,72.50
2023-03-17T01:20:58.781Z,75.20
2023-03-17T01:25:58.819Z,66.40
2023-03-17T01:30:58.855Z,70.90
2023-03-17T01:35:58.144Z,61.40
2023-03-17T01:40:57.649Z,60.70
2023-03-17T01:46:37.644Z,57.70
2023-03-17T01:51:44.524Z,55.70
2023-03-17T01:56:49.186Z,51.00
2023-03-17T02:01:54.225Z,52.60
2023-03-17T02:06:58.449Z,57.90
2023-03-17T02:11:59.958Z,49.90
2023-03-17T02:17:00.018Z,59.30
2023-03-17T02:22:01.046Z,56.30
2023-03-17T02:27:05.790Z,49.90
2023-03-17T02:32:05.586Z,53.90
2023-03-17T02:37:04.967Z,57.80
2023-03-17T02:42:05.470Z,57.00
2023-03-17T02:47:07.597Z,55.90
2023-03-17T02:52:07.515Z,65.80
2023-03-17T02:57:07.671Z,57.20
2023-03-17T03:02:07.094Z,69.60
2023-03-17T03:07:06.461Z,57.40
2023-03-17T03:12:06.221Z,61.30
2023-03-17T03:17:05.973Z,64.90
2023-03-17T03:22:05.237Z,62.70
2023-03-17T03:27:04.861Z,66.20
2023-03-17T03:32:04.718Z,52.80
2023-03-17T03:37:03.638Z,63.40
2023-03-17T03:42:02.658Z,60.80
2023-03-17T03:47:02.788Z,62.00
2023-03-17T03:52:01.993Z,65.00
2023-03-17T03:57:01.193Z,58.30
2023-03-17T04:02:00.366Z,65.50
2023-03-17T04:07:00.260Z,71.30
2023-03-17T04:11:59.630Z,68.40
2023-03-17T04:16:58.506Z,61.30
2023-03-17T04:21:57.761Z,57.70
2023-03-17T04:26:57.549Z,58.00
2023-03-17T04:31:57.196Z,54.10
2023-03-17T04:36:56.571Z,59.70
2023-03-17T04:41:55.996Z,52.00
2023-03-17T04:46:54.854Z,56.30
2023-03-17T04:51:53.875Z,52.20
2023-03-17T04:56:53.495Z,60.00
2023-03-17T05:01:53.733Z,56.80
2023-03-17T05:06:53.256Z,55.00
2023-03-17T05:11:53.065Z,57.00
2023-03-17T05:16:53.726Z,52.90
2023-03-17T05:21:52.742Z,53.10
2023-03-17T05:26:51.774Z,47.70
2023-03-17T05:31:51.087Z,48.10
2023-03-17T05:36:50.576Z,47.30
2023-03-17T05:41:50.508Z,44.50
2023-03-17T05:46:49.747Z,43.40
2023-03-17T05:51:49.076Z,42.80
2023-03-17T05:56:48.136Z,46.50
2023-03-17T06:01:47.735Z,45.70
2023-03-17T06:06:46.978Z,49.10
2023-03-17T06:11:46.199Z,47.90
2023-03-17T06:16:45.231Z,54.20
2023-03-17T06:21:44.276Z,53.80
2023-03-17T06:26:44.063Z,50.50
2023-03-17T06:31:50.590Z,45.20
2023-03-17T06:36:51.127Z,46.70
2023-03-17T06:41:51.206Z,52.90
2023-03-17T06:46:51.387Z,47.10
2023-03-17T06:51:51.651Z,46.20
2023-03-17T06:56:51.139Z,42.60
2023-03-17T07:01:52.172Z,27.70
2023-03-17T07:06:51.688Z,42.20
2023-03-17T07:11:51.818Z,41.80
2023-03-17T07:16:52.635Z,33.30
2023-03-17T07:21:51.473Z,35.00
2023-03-17T07:26:51.049Z,30.00
2023-03-17T07:31:50.738Z,32.00
2023-03-17T07:36:49.456Z,31.00
2023-03-17T07:41:53.233Z,29.20
2023-03-17T07:46:53.067Z,32.30
2023-03-17T07:51:52.490Z,27.30
2023-03-17T07:56:51.729Z,23.50
2023-03-17T08:01:51.032Z,31.20
2023-03-17T08:06:50.597Z,25.30
2023-03-17T08:11:49.862Z,26.10
2023-03-17T08:16:48.764Z,23.30
2023-03-17T08:21:47.521Z,24.30
2023-03-17T08:26:49.146Z,21.70
2023-03-17T08:31:48.367Z,18.00
2023-03-17T08:36:47.948Z,16.80
2023-03-17T08:41:47.228Z,16.60
2023-03-17T08:46:47.338Z,14.80
2023-03-17T08:51:49.036Z,13.10
2023-03-17T08:56:48.987Z,9.40
2023-03-17T09:01:49.124Z,9.90
2023-03-17T09:07:02.380Z,7.10
2023-03-17T09:12:03.270Z,7.30
2023-03-17T09:17:05.408Z,7.00
2023-03-17T09:22:07.026Z,7.30
2023-03-17T09:27:07.119Z,7.30
2023-03-17T09:32:06.288Z,9.00
2023-03-17T09:37:05.573Z,8.00
2023-03-17T09:42:26.416Z,9.20
2023-03-17T09:47:50.164Z,5.90
2023-03-17T09:52:51.551Z,7.40
2023-03-17T09:57:55.940Z,5.80
2023-03-17T10:02:55.794Z,6.40
2023-03-17T10:08:19.083Z,5.30
2023-03-17T10:13:47.327Z,7.10
2023-03-17T10:18:53.242Z,6.30
2023-03-17T10:23:54.541Z,7.10
2023-03-17T10:28:54.432Z,5.80
2023-03-17T10:33:55.761Z,5.80
2023-03-17T10:38:57.254Z,5.20
2023-03-17T10:43:59.676Z,5.30
2023-03-17T10:49:08.415Z,7.90
2023-03-17T10:54:19.204Z,5.40
2023-03-17T10:59:28.972Z,7.40
2023-03-17T11:04:42.691Z,5.60
2023-03-17T11:09:42.741Z,5.40
2023-03-17T11:14:46.049Z,5.20
2023-03-17T11:19:56.032Z,7.50
2023-03-17T11:25:10.230Z,5.40
2023-03-17T11:30:24.548Z,4.30
2023-03-17T11:41:19.961Z,8.60
2023-03-17T11:46:27.696Z,5.80
2023-03-17T11:51:37.751Z,7.10
2023-03-17T11:56:48.308Z,5.90
2023-03-17T12:01:59.818Z,6.50
2023-03-17T12:07:09.597Z,6.10
2023-03-17T12:12:13.818Z,5.50
2023-03-17T12:17:26.838Z,6.40
2023-03-17T12:22:38.528Z,5.10
2023-03-17T12:27:51.837Z,8.70
2023-03-17T12:33:00.724Z,7.30
2023-03-17T12:38:03.112Z,10.20
2023-03-17T12:43:30.801Z,11.90
2023-03-17T12:49:05.154Z,10.00
2023-03-17T12:54:04.763Z,10.10
2023-03-17T12:59:10.235Z,9.00
2023-03-17T13:04:32.734Z,9.20
2023-03-17T13:10:10.514Z,8.00
2023-03-17T13:15:32.154Z,11.00
2023-03-17T13:20:44.777Z,9.20
2023-03-17T13:25:55.452Z,9.40
2023-03-17T13:31:16.348Z,8.40
2023-03-17T13:36:34.793Z,10.00
2023-03-17T13:42:15.792Z,8.30
2023-03-17T13:47:42.164Z,9.70
2023-03-17T13:52:50.580Z,8.60
2023-03-17T13:58:23.910Z,8.20
2023-03-17T14:03:35.632Z,12.80
2023-03-17T14:08:39.407Z,10.80
2023-03-17T14:13:50.044Z,8.10
2023-03-17T14:18:55.527Z,9.50
2023-03-17T14:24:01.684Z,10.50
2023-03-17T14:29:05.696Z,15.20
2023-03-17T14:34:05.622Z,12.00
2023-03-17T14:39:04.580Z,10.60
2023-03-17T14:44:04.639Z,12.50
2023-03-17T14:49:15.894Z,8.90
2023-03-17T14:54:23.152Z,10.50
2023-03-17T14:59:29.197Z,12.50
2023-03-17T15:04:31.544Z,12.20
2023-03-17T15:09:36.414Z,10.00
2023-03-17T15:14:40.405Z,11.10
2023-03-17T15:19:45.188Z,10.60
2023-03-17T15:24:45.554Z,12.90
2023-03-17T15:29:45.037Z,11.40
2023-03-17T15:34:45.265Z,13.90
2023-03-17T15:39:47.640Z,11.00
2023-03-17T15:44:46.542Z,11.20
2023-03-17T15:49:46.781Z,8.70
2023-03-17T15:54:46.447Z,8.70
2023-03-17T15:59:46.688Z,12.80
2023-03-17T16:04:46.336Z,10.60
2023-03-17T16:09:47.083Z,10.50
2023-03-17T16:14:47.473Z,9.30
2023-03-17T16:19:46.709Z,11.20
2023-03-17T16:24:45.993Z,11.10
2023-03-17T16:29:45.794Z,9.70
2023-03-17T16:34:45.758Z,10.70
2023-03-17T16:39:45.300Z,10.10
2023-03-17T16:44:45.486Z,13.50
2023-03-17T16:49:44.439Z,11.30
2023-03-17T16:54:44.558Z,13.90
2023-03-17T16:59:44.193Z,14.20
2023-03-17T17:04:43.925Z,11.30
2023-03-17T17:09:43.052Z,16.00
2023-03-17T17:14:45.706Z,16.70
2023-03-17T17:19:45.664Z,17.00
2023-03-17T17:24:44.666Z,22.20
2023-03-17T17:29:44.488Z,19.80
2023-03-17T17:34:43.404Z,17.90
2023-03-17T17:39:42.916Z,20.20
2023-03-17T17:44:42.900Z,22.90
2023-03-17T17:49:43.317Z,19.40
2023-03-17T17:54:42.317Z,18.50
2023-03-17T17:59:41.667Z,22.00
2023-03-17T18:04:40.477Z,23.40
2023-03-17T18:09:39.563Z,23.70
2023-03-17T18:14:38.922Z,21.60
2023-03-17T18:19:38.735Z,22.90
2023-03-17T18:24:38.030Z,19.10
2023-03-17T18:29:37.450Z,20.40
2023-03-17T18:34:43.576Z,18.30
2023-03-17T18:39:44.500Z,18.30
2023-03-17T18:44:44.439Z,17.70
2023-03-17T18:49:47.248Z,18.90
2023-03-17T18:54:49.220Z,18.70
2023-03-17T18:59:48.779Z,18.60
2023-03-17T19:04:47.925Z,15.10
2023-03-17T19:09:47.174Z,22.90
2023-03-17T19:14:46.374Z,21.40
2023-03-17T19:19:45.668Z,19.50
2023-03-17T19:24:46.101Z,21.10
2023-03-17T19:29:45.160Z,19.70
2023-03-17T19:34:44.558Z,19.00
2023-03-17T19:39:45.569Z,17.70
2023-03-17T19:44:44.886Z,21.50
2023-03-17T19:49:43.696Z,18.10
2023-03-17T19:54:45.928Z,17.60
2023-03-17T19:59:45.569Z,17.90
2023-03-17T20:04:44.798Z,19.00
2023-03-17T20:09:46.390Z,18.10
2023-03-17T20:14:46.239Z,16.90
2023-03-17T20:19:46.348Z,14.60
2023-03-17T20:24:45.967Z,15.60
2023-03-17T20:29:46.539Z,13.60
2023-03-17T20:34:47.395Z,16.90
2023-03-17T20:39:46.888Z,19.60
2023-03-17T20:44:52.785Z,16.90
2023-03-17T20:49:53.318Z,16.10
2023-03-17T20:54:52.563Z,13.90
2023-03-17T20:59:51.509Z,13.50
2023-03-17T21:04:51.502Z,12.20
2023-03-17T21:09:52.048Z,13.30
2023-03-17T21:14:52.250Z,14.30
2023-03-17T21:19:51.204Z,15.30
2023-03-17T21:24:50.144Z,15.30
2023-03-17T21:29:50.271Z,15.20
2023-03-17T21:34:50.781Z,13.10
2023-03-17T21:39:50.670Z,13.10
2023-03-17T21:44:52.122Z,13.50
2023-03-17T21:49:51.502Z,12.30
2023-03-17T21:54:50.615Z,11.60
2023-03-17T21:59:52.350Z,11.50
2023-03-17T22:04:52.486Z,15.40
2023-03-17T22:09:54.831Z,11.10
2023-03-17T22:14:57.277Z,10.50
2023-03-17T22:19:58.212Z,10.50
2023-03-17T22:24:58.199Z,14.30
2023-03-17T22:29:57.906Z,12.70
2023-03-17T22:34:57.499Z,12.40
2023-03-17T22:40:02.602Z,16.50
2023-03-17T22:45:02.475Z,10.60
2023-03-17T22:50:02.281Z,10.60
2023-03-17T22:55:01.542Z,13.70
2023-03-17T23:00:01.123Z,12.00
2023-03-17T23:05:00.957Z,11.80
2023-03-17T23:10:00.748Z,13.40
2023-03-17T23:15:00.642Z,9.20
2023-03-17T23:20:02.916Z,9.40
2023-03-17T23:25:03.841Z,10.50
2023-03-17T23:30:03.783Z,10.30
2023-03-17T23:35:03.386Z,9.80
2023-03-17T23:40:02.800Z,12.30
2023-03-17T23:45:02.282Z,11.20
2023-03-17T23:50:02.231Z,11.40
2023-03-17T23:55:02.172Z,10.70
